Time;durP1;ratioP1;P1;durP2;ratioP2;P2;SDS_P1;SDS_P2;PMS_P1;PMS_P2;Temp;Humidity;BMP_temperature;BMP_pressure;BME280_temperature;BME280_humidity;BME280_pressure;Samples;Min_cycle;Max_cycle;Signal;HPM_P1;HPM_P2
2023/12/05 00:00:33;;;;;;;;;;;3.40;99.20;;;;;;5098664;28;20364;-69
2023/12/05 00:02:59;;;;;;;;;;;3.50;99.30;;;;;;5105941;28;20330;-69
2023/12/05 00:05:24;;;;;;;;;;;3.50;99.30;;;;;;5101656;28;19920;-69
2023/12/05 00:07:50;;;;;;;;;;;3.50;99.30;;;;;;5102453;27;19944;-68
2023/12/05 00:10:15;;;;;;;;;;;3.40;99.30;;;;;;5101059;28;19934;-69
2023/12/05 00:12:42;;;;;;;;;;;3.40;99.30;;;;;;5101252;28;21305;-69
2023/12/05 00:15:08;;;;;;;;;;;3.50;99.30;;;;;;5090269;28;19909;-68
2023/12/05 00:17:34;;;;;;;;;;;3.50;99.30;;;;;;5102238;28;19916;-68
2023/12/05 00:19:59;;;;;;;;;;;3.50;99.30;;;;;;5095416;28;19923;-68
2023/12/05 00:22:28;;;;;;;;;;;3.50;99.30;;;;;;5090612;28;19911;-69
2023/12/05 00:24:53;;;;;;;;;;;3.50;99.30;;;;;;5107232;28;19912;-69
2023/12/05 00:27:19;;;;;;;;;;;3.50;99.30;;;;;;5090033;28;19919;-68
2023/12/05 00:29:45;;;;;;;;;;;3.50;99.30;;;;;;5091787;28;19916;-69
2023/12/05 00:32:11;;;;;;;;;;;3.50;99.30;;;;;;5094740;28;19912;-68
2023/12/05 00:34:36;;;;;;;;;;;3.50;99.30;;;;;;5095081;28;19919;-68
2023/12/05 00:37:03;;;;;;;;;;;3.50;99.40;;;;;;5095412;28;19970;-68
2023/12/05 00:39:28;;;;;;;;;;;3.50;99.30;;;;;;5102962;28;20582;-68
2023/12/05 00:41:54;;;;;;;;;;;3.50;99.30;;;;;;5094637;28;19916;-69
2023/12/05 00:44:19;;;;;;;;;;;3.50;99.40;;;;;;5098095;28;19912;-68
2023/12/05 00:46:45;;;;;;;;;;;3.50;99.40;;;;;;5099948;28;19912;-69
2023/12/05 00:49:11;;;;;;;;;;;3.50;99.30;;;;;;5086254;28;19909;-68
2023/12/05 00:51:36;;;;;;;;;;;3.50;99.40;;;;;;5086427;28;20648;-69
2023/12/05 00:54:02;;;;;;;;;;;3.50;99.40;;;;;;5095162;28;20601;-69
2023/12/05 00:56:27;;;;;;;;;;;3.50;99.40;;;;;;5093743;28;20325;-68
2023/12/05 00:58:53;;;;;;;;;;;3.50;99.40;;;;;;5093955;28;19957;-69
2023/12/05 01:01:19;;;;;;;;;;;3.50;99.40;;;;;;5105797;28;19916;-68
2023/12/05 01:03:45;;;;;;;;;;;3.50;99.70;;;;;;5087859;28;20006;-68
2023/12/05 01:06:10;;;;;;;;;;;3.50;99.40;;;;;;5096999;28;20022;-69
2023/12/05 01:08:36;;;;;;;;;;;3.50;99.50;;;;;;5099700;28;19957;-69
2023/12/05 01:11:01;;;;;;;;;;;3.50;99.40;;;;;;5105366;28;19999;-69
2023/12/05 01:13:27;;;;;;;;;;;3.50;99.40;;;;;;5098432;28;20370;-69
2023/12/05 01:15:52;;;;;;;;;;;3.50;99.30;;;;;;5070971;28;19919;-68
2023/12/05 01:18:18;;;;;;;;;;;3.50;99.40;;;;;;5102438;28;19916;-68
2023/12/05 01:20:44;;;;;;;;;;;3.50;99.40;;;;;;5100676;28;19936;-69
2023/12/05 01:23:10;;;;;;;;;;;3.50;99.40;;;;;;5095837;28;19923;-69
2023/12/05 01:25:35;;;;;;;;;;;3.50;99.40;;;;;;5090597;28;20483;-69
2023/12/05 01:28:01;;;;;;;;;;;3.50;99.30;;;;;;5087088;28;19912;-68
2023/12/05 01:30:26;;;;;;;;;;;3.50;99.40;;;;;;5092800;28;19920;-69
2023/12/05 01:32:52;;;;;;;;;;;3.60;99.40;;;;;;5092850;28;19919;-69
2023/12/05 01:35:17;;;;;;;;;;;3.50;99.40;;;;;;5087048;28;19916;-69
2023/12/05 01:37:43;;;;;;;;;;;3.60;99.40;;;;;;5091191;28;19912;-69
2023/12/05 01:40:09;;;;;;;;;;;3.60;99.50;;;;;;5088518;28;20626;-68
2023/12/05 01:42:38;;;;;;;;;;;3.60;99.50;;;;;;5096632;28;19943;-69
2023/12/05 01:45:10;;;;;;;;;;;3.50;99.50;;;;;;5104266;28;20038;-68
2023/12/05 01:47:39;;;;;;;;;;;3.60;99.50;;;;;;5098464;28;19916;-68
2023/12/05 01:50:08;;;;;;;;;;;3.60;99.50;;;;;;5088657;28;20089;-68
2023/12/05 01:52:33;;;;;;;;;;;3.60;99.60;;;;;;5105348;28;20002;-69
2023/12/05 01:54:59;;;;;;;;;;;3.60;99.60;;;;;;5101753;28;20584;-68
2023/12/05 01:57:25;;;;;;;;;;;3.60;99.60;;;;;;5093186;28;20588;-69
2023/12/05 01:59:51;;;;;;;;;;;3.60;99.60;;;;;;5084854;28;19912;-69
2023/12/05 02:02:16;;;;;;;;;;;3.60;99.60;;;;;;5098046;28;20244;-69
2023/12/05 02:04:42;;;;;;;;;;;3.60;99.50;;;;;;5094770;28;19924;-68
2023/12/05 02:07:08;;;;;;;;;;;3.60;99.60;;;;;;5094280;28;20038;-69
2023/12/05 02:09:35;;;;;;;;;;;3.60;99.60;;;;;;5097005;28;19912;-69
2023/12/05 02:12:01;;;;;;;;;;;3.60;99.60;;;;;;5096651;28;19985;-69
2023/12/05 02:14:26;;;;;;;;;;;3.60;99.70;;;;;;5083081;28;19912;-69
2023/12/05 02:17:06;;;;;;;;;;;3.60;99.60;;;;;;5100382;28;20708;-69
2023/12/05 02:19:45;;;;;;;;;;;3.60;99.60;;;;;;5100379;28;20498;-69
2023/12/05 02:22:34;;;;;;;;;;;3.60;99.60;;;;;;5101311;28;19912;-69
2023/12/05 02:25:23;;;;;;;;;;;3.60;99.60;;;;;;5075751;28;19912;-69
2023/12/05 02:27:48;;;;;;;;;;;3.60;99.60;;;;;;5083007;28;19965;-69
2023/12/05 02:30:17;;;;;;;;;;;3.60;99.60;;;;;;5090524;28;19924;-68
2023/12/05 02:32:42;;;;;;;;;;;3.60;99.60;;;;;;5101859;28;19908;-68
2023/12/05 02:35:10;;;;;;;;;;;3.60;99.60;;;;;;5096125;28;19958;-69
2023/12/05 02:37:43;;;;;;;;;;;3.60;99.60;;;;;;5086654;28;19923;-68
2023/12/05 02:40:10;;;;;;;;;;;3.60;99.60;;;;;;5077540;28;19908;-69
2023/12/05 02:42:36;;;;;;;;;;;3.60;99.60;;;;;;5104645;28;19912;-69
2023/12/05 02:45:02;;;;;;;;;;;3.60;99.60;;;;;;5096006;28;19912;-69
2023/12/05 02:47:29;;;;;;;;;;;3.60;99.60;;;;;;5104754;28;19911;-68
2023/12/05 02:49:55;;;;;;;;;;;3.60;99.60;;;;;;5088563;28;19916;-69
2023/12/05 02:52:21;;;;;;;;;;;3.70;99.60;;;;;;5084345;28;19966;-69
2023/12/05 02:54:46;;;;;;;;;;;3.60;99.60;;;;;;5084999;28;19908;-69
2023/12/05 02:57:12;;;;;;;;;;;3.70;99.60;;;;;;5092312;28;19958;-69
2023/12/05 02:59:37;;;;;;;;;;;3.70;99.60;;;;;;5103836;28;19907;-69
2023/12/05 03:02:03;;;;;;;;;;;3.60;99.70;;;;;;5104530;28;20352;-69
2023/12/05 03:04:30;;;;;;;;;;;3.60;99.60;;;;;;5092304;28;20001;-68
2023/12/05 03:06:55;;;;;;;;;;;3.70;99.60;;;;;;5092730;28;20466;-69
2023/12/05 03:09:21;;;;;;;;;;;3.60;99.60;;;;;;5100957;28;19912;-69
2023/12/05 03:11:46;;;;;;;;;;;3.60;99.60;;;;;;5092833;28;19995;-68
2023/12/05 03:14:13;;;;;;;;;;;3.70;99.70;;;;;;5092522;28;20356;-69
2023/12/05 03:16:38;;;;;;;;;;;3.70;99.70;;;;;;5089340;28;20081;-69
2023/12/05 03:19:04;;;;;;;;;;;3.70;99.70;;;;;;5077235;28;20011;-69
2023/12/05 03:21:29;;;;;;;;;;;3.70;99.70;;;;;;5073634;28;20718;-69
2023/12/05 03:23:55;;;;;;;;;;;3.70;99.80;;;;;;5084674;28;19997;-69
2023/12/05 03:26:21;;;;;;;;;;;3.70;99.70;;;;;;5086909;28;19912;-69
2023/12/05 03:28:50;;;;;;;;;;;3.70;99.70;;;;;;5096146;28;20045;-69
2023/12/05 03:31:16;;;;;;;;;;;3.70;99.80;;;;;;5096979;28;19916;-69
2023/12/05 03:33:41;;;;;;;;;;;3.70;99.80;;;;;;5104480;28;19919;-68
2023/12/05 03:36:07;;;;;;;;;;;3.70;99.80;;;;;;5096498;28;19915;-69
2023/12/05 03:38:33;;;;;;;;;;;3.70;99.90;;;;;;5107094;28;19926;-69
2023/12/05 03:40:59;;;;;;;;;;;3.70;99.80;;;;;;5105330;28;20014;-69
2023/12/05 03:43:24;;;;;;;;;;;3.70;99.80;;;;;;5100789;28;19924;-69
2023/12/05 03:45:50;;;;;;;;;;;3.70;99.90;;;;;;5089230;28;19918;-69
2023/12/05 03:48:16;;;;;;;;;;;3.70;99.90;;;;;;5105525;28;19915;-69
2023/12/05 03:50:41;;;;;;;;;;;3.70;99.90;;;;;;5093253;28;19965;-68
2023/12/05 03:53:07;;;;;;;;;;;3.70;99.90;;;;;;5099151;28;20289;-69
2023/12/05 03:55:33;;;;;;;;;;;3.70;99.90;;;;;;5098468;28;19980;-69
2023/12/05 03:57:58;;;;;;;;;;;3.70;99.90;;;;;;5103820;28;19923;-69
2023/12/05 04:00:24;;;;;;;;;;;3.70;99.80;;;;;;5097999;28;19912;-69
2023/12/05 04:02:49;;;;;;;;;;;3.70;99.80;;;;;;5104156;28;19964;-69
2023/12/05 04:05:15;;;;;;;;;;;3.70;99.80;;;;;;5089696;28;19924;-69
2023/12/05 04:07:41;;;;;;;;;;;3.70;99.80;;;;;;5101883;28;19981;-68
2023/12/05 04:10:07;;;;;;;;;;;3.70;99.80;;;;;;5095208;28;19939;-69
2023/12/05 04:12:33;;;;;;;;;;;3.70;99.80;;;;;;5095289;28;20006;-69
2023/12/05 04:14:58;;;;;;;;;;;3.70;99.90;;;;;;5103341;28;20770;-69
2023/12/05 04:17:24;;;;;;;;;;;3.70;99.80;;;;;;5098395;28;19973;-69
2023/12/05 04:19:49;;;;;;;;;;;3.70;99.80;;;;;;5107189;28;19911;-69
2023/12/05 04:22:15;;;;;;;;;;;3.80;99.90;;;;;;5098388;28;19921;-69
2023/12/05 04:24:40;;;;;;;;;;;3.80;99.80;;;;;;5098628;28;19919;-69
2023/12/05 04:27:06;;;;;;;;;;;3.80;99.90;;;;;;5079248;28;19912;-69
2023/12/05 04:29:31;;;;;;;;;;;3.70;99.90;;;;;;5092646;28;20414;-69
2023/12/05 04:31:59;;;;;;;;;;;3.70;99.80;;;;;;5098632;28;19912;-69
2023/12/05 04:34:24;;;;;;;;;;;3.80;99.90;;;;;;5077216;28;20518;-69
2023/12/05 04:36:50;;;;;;;;;;;3.80;99.90;;;;;;5101560;28;19998;-69
2023/12/05 04:39:16;;;;;;;;;;;3.80;99.90;;;;;;5096703;28;19926;-69
2023/12/05 04:41:42;;;;;;;;;;;3.80;99.90;;;;;;5106390;28;19918;-69
2023/12/05 04:44:07;;;;;;;;;;;3.80;99.90;;;;;;5096813;28;19908;-68
2023/12/05 04:46:36;;;;;;;;;;;3.80;99.90;;;;;;5116734;27;19908;-69
2023/12/05 04:49:01;;;;;;;;;;;3.80;99.90;;;;;;5101421;28;19962;-69
2023/12/05 04:51:27;;;;;;;;;;;3.80;99.90;;;;;;5085998;28;19947;-69
2023/12/05 04:53:52;;;;;;;;;;;3.80;99.90;;;;;;5101148;28;19912;-69
2023/12/05 04:56:18;;;;;;;;;;;3.80;99.90;;;;;;5084171;28;20353;-69
2023/12/05 04:58:44;;;;;;;;;;;3.80;99.90;;;;;;5099825;28;19914;-68
2023/12/05 05:01:09;;;;;;;;;;;3.80;99.90;;;;;;5105244;28;19979;-69
2023/12/05 05:03:35;;;;;;;;;;;3.80;99.90;;;;;;5098313;28;19919;-69
2023/12/05 05:06:00;;;;;;;;;;;3.80;99.90;;;;;;5089510;28;19939;-69
2023/12/05 05:08:26;;;;;;;;;;;3.80;99.90;;;;;;5102539;28;20672;-68
2023/12/05 05:10:51;;;;;;;;;;;3.80;99.90;;;;;;5092794;28;19912;-69
2023/12/05 05:13:16;;;;;;;;;;;3.80;99.90;;;;;;5097059;28;19912;-68
2023/12/05 05:15:42;;;;;;;;;;;3.80;99.90;;;;;;5105994;28;20365;-68
2023/12/05 05:18:07;;;;;;;;;;;3.80;99.90;;;;;;5088609;28;19912;-68
2023/12/05 05:20:33;;;;;;;;;;;3.80;99.90;;;;;;5106074;28;19918;-69
2023/12/05 05:22:58;;;;;;;;;;;3.90;99.90;;;;;;5089109;28;19951;-69
2023/12/05 05:25:24;;;;;;;;;;;3.80;99.90;;;;;;5093310;28;19916;-69
2023/12/05 05:27:49;;;;;;;;;;;3.90;99.90;;;;;;5092062;28;19911;-68
2023/12/05 05:30:15;;;;;;;;;;;3.80;99.90;;;;;;5079138;28;20014;-69
2023/12/05 05:32:40;;;;;;;;;;;3.90;99.90;;;;;;5100107;28;19908;-69
2023/12/05 05:35:06;;;;;;;;;;;3.90;99.90;;;;;;5094775;28;20494;-68
2023/12/05 05:37:32;;;;;;;;;;;3.90;99.90;;;;;;5105590;28;19930;-69
2023/12/05 05:39:57;;;;;;;;;;;3.90;99.90;;;;;;5097448;28;19920;-69
2023/12/05 05:42:23;;;;;;;;;;;3.90;99.90;;;;;;5096553;28;19965;-68
2023/12/05 05:44:48;;;;;;;;;;;3.90;99.90;;;;;;5083988;28;19916;-68
2023/12/05 05:47:14;;;;;;;;;;;3.90;99.90;;;;;;5093101;28;19916;-68
2023/12/05 05:49:39;;;;;;;;;;;3.90;99.90;;;;;;5093258;28;19912;-69
2023/12/05 05:52:05;;;;;;;;;;;3.90;99.90;;;;;;5101115;28;20425;-69
2023/12/05 05:54:31;;;;;;;;;;;3.90;99.90;;;;;;5097457;28;19911;-69
2023/12/05 05:56:56;;;;;;;;;;;3.90;99.90;;;;;;5104960;28;19955;-68
2023/12/05 05:59:22;;;;;;;;;;;3.90;99.90;;;;;;5074530;28;19916;-69
2023/12/05 06:01:47;;;;;;;;;;;3.90;99.90;;;;;;5102623;27;19962;-69
2023/12/05 06:04:13;;;;;;;;;;;3.90;99.90;;;;;;5100837;28;20372;-69
2023/12/05 06:06:38;;;;;;;;;;;3.90;99.90;;;;;;5098427;28;19911;-69
2023/12/05 06:09:04;;;;;;;;;;;3.90;99.90;;;;;;5078565;28;19990;-69
2023/12/05 06:11:29;;;;;;;;;;;3.90;99.90;;;;;;5104372;28;19989;-68
2023/12/05 06:13:55;;;;;;;;;;;4.00;99.90;;;;;;5105317;28;19912;-69
2023/12/05 06:16:21;;;;;;;;;;;3.90;99.90;;;;;;5104633;28;20330;-69
2023/12/05 06:18:46;;;;;;;;;;;4.00;99.90;;;;;;5097150;28;19919;-69
2023/12/05 06:21:12;;;;;;;;;;;3.90;99.90;;;;;;5096453;28;19923;-68
2023/12/05 06:23:38;;;;;;;;;;;4.00;99.90;;;;;;5087243;28;19916;-69
2023/12/05 06:26:04;;;;;;;;;;;4.00;99.90;;;;;;5104668;28;20428;-68
2023/12/05 06:28:30;;;;;;;;;;;4.00;99.90;;;;;;5101379;28;19912;-68
2023/12/05 06:30:56;;;;;;;;;;;4.00;99.90;;;;;;5087134;28;19912;-68
2023/12/05 06:33:21;;;;;;;;;;;4.00;99.90;;;;;;5095465;28;19986;-68
2023/12/05 06:35:47;;;;;;;;;;;4.00;99.90;;;;;;5097333;28;19915;-68
2023/12/05 06:38:13;;;;;;;;;;;4.00;99.90;;;;;;5105056;28;19923;-68
2023/12/05 06:40:38;;;;;;;;;;;4.00;99.90;;;;;;5100108;28;20234;-69
2023/12/05 06:43:04;;;;;;;;;;;4.00;99.90;;;;;;5084262;28;19927;-69
2023/12/05 06:45:29;;;;;;;;;;;4.00;99.90;;;;;;5096644;28;19918;-68
2023/12/05 06:47:55;;;;;;;;;;;4.00;99.90;;;;;;5070642;28;20281;-69
2023/12/05 06:50:21;;;;;;;;;;;4.00;99.90;;;;;;5094963;28;20006;-68
2023/12/05 06:52:47;;;;;;;;;;;4.00;99.90;;;;;;5096541;28;19912;-69
2023/12/05 06:55:12;;;;;;;;;;;4.10;99.90;;;;;;5103120;28;19912;-68
2023/12/05 06:57:38;;;;;;;;;;;4.00;99.90;;;;;;5091216;28;19912;-68
2023/12/05 07:00:04;;;;;;;;;;;4.10;99.90;;;;;;5084183;28;19912;-68
2023/12/05 07:02:29;;;;;;;;;;;4.00;99.90;;;;;;5092688;28;20258;-68
2023/12/05 07:04:57;;;;;;;;;;;4.10;99.90;;;;;;5092271;28;19927;-68
2023/12/05 07:07:24;;;;;;;;;;;4.10;99.90;;;;;;5092533;28;19908;-68
2023/12/05 07:09:49;;;;;;;;;;;4.10;99.90;;;;;;5084155;28;20229;-68
2023/12/05 07:12:15;;;;;;;;;;;4.10;99.90;;;;;;5086428;28;19912;-68
2023/12/05 07:14:40;;;;;;;;;;;4.10;99.90;;;;;;5099933;28;19911;-68
2023/12/05 07:17:06;;;;;;;;;;;4.10;99.90;;;;;;5098809;28;19935;-68
2023/12/05 07:19:31;;;;;;;;;;;4.10;99.90;;;;;;5088253;28;20252;-69
2023/12/05 07:21:57;;;;;;;;;;;4.10;99.90;;;;;;5087797;28;20052;-69
2023/12/05 07:24:22;;;;;;;;;;;4.10;99.90;;;;;;5088100;28;19908;-69
2023/12/05 07:26:48;;;;;;;;;;;4.10;99.90;;;;;;5103053;28;20204;-68
2023/12/05 07:29:14;;;;;;;;;;;4.10;99.90;;;;;;5084596;28;19915;-68
2023/12/05 07:31:39;;;;;;;;;;;4.20;99.90;;;;;;5095525;28;19912;-68
2023/12/05 07:34:05;;;;;;;;;;;4.20;99.90;;;;;;5107962;28;19918;-69
2023/12/05 07:36:30;;;;;;;;;;;4.20;99.90;;;;;;5088116;28;19972;-69
2023/12/05 07:38:56;;;;;;;;;;;4.20;99.90;;;;;;5104033;28;20299;-69
2023/12/05 07:41:24;;;;;;;;;;;4.20;99.90;;;;;;5094694;28;19909;-69
2023/12/05 07:43:50;;;;;;;;;;;4.20;99.90;;;;;;5084162;28;19912;-69
2023/12/05 07:46:16;;;;;;;;;;;4.20;99.90;;;;;;5099165;28;19998;-68
2023/12/05 07:48:42;;;;;;;;;;;4.20;99.90;;;;;;5107849;28;20056;-69
2023/12/05 07:51:08;;;;;;;;;;;4.20;99.90;;;;;;5107257;28;20264;-68
2023/12/05 07:53:33;;;;;;;;;;;4.30;99.90;;;;;;5092035;28;19908;-68
2023/12/05 07:55:59;;;;;;;;;;;4.20;99.90;;;;;;5099213;28;19911;-68
2023/12/05 07:58:25;;;;;;;;;;;4.30;99.90;;;;;;5107478;28;20474;-68
2023/12/05 08:00:51;;;;;;;;;;;4.30;99.90;;;;;;5091585;28;19919;-68
2023/12/05 08:03:16;;;;;;;;;;;4.30;99.90;;;;;;5105355;28;20378;-68
2023/12/05 08:05:42;;;;;;;;;;;4.30;99.90;;;;;;5093976;28;19916;-69
2023/12/05 08:08:07;;;;;;;;;;;4.30;99.90;;;;;;5095356;28;19908;-69
2023/12/05 08:10:33;;;;;;;;;;;4.30;99.90;;;;;;5087371;28;20366;-68
2023/12/05 08:12:58;;;;;;;;;;;4.30;99.90;;;;;;5095195;28;19912;-68
2023/12/05 08:15:24;;;;;;;;;;;4.30;99.90;;;;;;5095752;28;19939;-69
2023/12/05 08:17:49;;;;;;;;;;;4.30;99.90;;;;;;5101423;28;20269;-68
2023/12/05 08:20:15;;;;;;;;;;;4.30;99.90;;;;;;5088723;28;19959;-68
2023/12/05 08:22:40;;;;;;;;;;;4.30;99.90;;;;;;5100020;28;19915;-69
2023/12/05 08:25:08;;;;;;;;;;;4.40;99.90;;;;;;5106298;28;20372;-68
2023/12/05 08:27:34;;;;;;;;;;;4.40;99.90;;;;;;5107145;28;20260;-69
2023/12/05 08:30:01;;;;;;;;;;;4.40;99.90;;;;;;5095290;28;19912;-69
2023/12/05 08:32:27;;;;;;;;;;;4.40;99.90;;;;;;5089207;28;19982;-68
2023/12/05 08:34:52;;;;;;;;;;;4.40;99.90;;;;;;5091455;28;20384;-68
2023/12/05 08:37:18;;;;;;;;;;;4.40;99.90;;;;;;5086568;28;20010;-68
2023/12/05 08:39:43;;;;;;;;;;;4.40;99.90;;;;;;5100451;28;20011;-68
2023/12/05 08:42:09;;;;;;;;;;;4.40;99.90;;;;;;5105885;28;19988;-68
2023/12/05 08:44:34;;;;;;;;;;;4.50;99.90;;;;;;5086313;28;19912;-68
2023/12/05 08:47:00;;;;;;;;;;;4.50;99.90;;;;;;5094616;28;20328;-69
2023/12/05 08:49:25;;;;;;;;;;;4.50;99.90;;;;;;5105089;28;19912;-68
2023/12/05 08:51:51;;;;;;;;;;;4.50;99.90;;;;;;5076034;28;20010;-68
2023/12/05 08:54:18;;;;;;;;;;;4.60;99.90;;;;;;5094300;28;19911;-69
2023/12/05 08:56:43;;;;;;;;;;;4.60;99.90;;;;;;5105421;28;20001;-68
2023/12/05 08:59:09;;;;;;;;;;;4.60;99.90;;;;;;5094353;28;20460;-68
2023/12/05 09:01:34;;;;;;;;;;;4.60;99.90;;;;;;5086028;28;19916;-68
2023/12/05 09:04:00;;;;;;;;;;;4.60;99.90;;;;;;5093127;28;20083;-68
2023/12/05 09:06:25;;;;;;;;;;;4.70;99.90;;;;;;5092963;28;19947;-69
2023/12/05 09:08:51;;;;;;;;;;;4.70;99.90;;;;;;5090584;28;19962;-68
2023/12/05 09:11:17;;;;;;;;;;;4.70;99.90;;;;;;5084609;28;20280;-68
2023/12/05 09:13:42;;;;;;;;;;;4.70;99.90;;;;;;5087021;28;20340;-68
2023/12/05 09:16:08;;;;;;;;;;;4.70;99.90;;;;;;5089899;28;19915;-68
2023/12/05 09:18:33;;;;;;;;;;;4.80;99.90;;;;;;5088774;28;19934;-69
2023/12/05 09:20:59;;;;;;;;;;;4.80;99.90;;;;;;5095986;28;19912;-68
2023/12/05 09:23:24;;;;;;;;;;;4.80;99.90;;;;;;5095822;28;19916;-68
2023/12/05 09:25:50;;;;;;;;;;;4.90;99.90;;;;;;5090178;28;19918;-68
2023/12/05 09:28:15;;;;;;;;;;;4.90;99.90;;;;;;5091046;28;19957;-68
2023/12/05 09:30:41;;;;;;;;;;;4.90;99.90;;;;;;5079121;28;19966;-68
2023/12/05 09:33:06;;;;;;;;;;;4.90;99.90;;;;;;5092707;28;19912;-68
2023/12/05 09:35:32;;;;;;;;;;;5.00;99.90;;;;;;5098585;28;20791;-68
2023/12/05 09:37:58;;;;;;;;;;;5.00;99.90;;;;;;5085357;28;19926;-68
2023/12/05 09:40:24;;;;;;;;;;;5.00;99.90;;;;;;5077207;28;20441;-68
2023/12/05 09:42:51;;;;;;;;;;;5.00;99.90;;;;;;5095314;28;19918;-68
2023/12/05 09:45:17;;;;;;;;;;;5.10;99.90;;;;;;5087330;28;19956;-68
2023/12/05 09:47:45;;;;;;;;;;;5.10;99.90;;;;;;5092816;28;19935;-68
2023/12/05 09:50:10;;;;;;;;;;;5.10;99.90;;;;;;5100685;28;19912;-68
2023/12/05 09:52:36;;;;;;;;;;;5.20;99.90;;;;;;5096807;28;19988;-68
2023/12/05 09:55:02;;;;;;;;;;;5.20;99.90;;;;;;5070075;28;19934;-68
2023/12/05 09:57:28;;;;;;;;;;;5.20;99.90;;;;;;5099562;28;19912;-68
2023/12/05 09:59:54;;;;;;;;;;;5.20;99.90;;;;;;5083579;28;20268;-68
2023/12/05 10:02:20;;;;;;;;;;;5.30;99.90;;;;;;5100756;28;19926;-68
2023/12/05 10:04:49;;;;;;;;;;;5.30;99.90;;;;;;5089588;28;19989;-68
2023/12/05 10:07:14;;;;;;;;;;;5.30;99.90;;;;;;5090608;28;20562;-68
2023/12/05 10:09:40;;;;;;;;;;;5.30;99.90;;;;;;5091461;28;19918;-68
2023/12/05 10:12:07;;;;;;;;;;;5.40;99.90;;;;;;5071982;28;19919;-68
2023/12/05 10:14:33;;;;;;;;;;;5.30;99.90;;;;;;5083782;28;19918;-68
2023/12/05 10:16:59;;;;;;;;;;;5.40;99.90;;;;;;5080296;28;20277;-68
2023/12/05 10:19:24;;;;;;;;;;;5.40;99.90;;;;;;5085858;28;19928;-68
2023/12/05 10:21:50;;;;;;;;;;;5.40;99.90;;;;;;5097222;28;19912;-68
2023/12/05 10:24:17;;;;;;;;;;;5.50;99.90;;;;;;5074581;28;20028;-68
2023/12/05 10:26:46;;;;;;;;;;;5.50;99.90;;;;;;5082675;28;20526;-68
2023/12/05 10:29:13;;;;;;;;;;;5.50;99.90;;;;;;5076423;28;19944;-68
2023/12/05 10:31:40;;;;;;;;;;;5.50;99.90;;;;;;5083052;28;19994;-68
2023/12/05 10:34:06;;;;;;;;;;;5.50;99.90;;;;;;5083563;28;20288;-68
2023/12/05 10:36:32;;;;;;;;;;;5.60;99.90;;;;;;5079367;28;19916;-68
2023/12/05 10:38:57;;;;;;;;;;;5.60;99.90;;;;;;5077677;28;19985;-68
2023/12/05 10:41:23;;;;;;;;;;;5.60;99.90;;;;;;5063489;28;19909;-68
2023/12/05 10:43:49;;;;;;;;;;;5.60;99.90;;;;;;5080608;28;19911;-68
2023/12/05 10:46:15;;;;;;;;;;;5.60;99.90;;;;;;5085726;28;20000;-68
2023/12/05 10:48:40;;;;;;;;;;;5.60;99.90;;;;;;5096074;28;19920;-68
2023/12/05 10:51:06;;;;;;;;;;;5.70;99.90;;;;;;5079626;28;19912;-68
2023/12/05 10:53:34;;;;;;;;;;;5.70;99.90;;;;;;5082636;28;19912;-68
2023/12/05 10:56:09;;;;;;;;;;;5.70;99.90;;;;;;5107264;28;19911;-68
2023/12/05 10:58:36;;;;;;;;;;;5.70;99.90;;;;;;5076900;28;19962;-68
2023/12/05 11:01:02;;;;;;;;;;;5.70;99.90;;;;;;5084522;28;19923;-68
2023/12/05 11:03:27;;;;;;;;;;;5.70;99.90;;;;;;5095358;28;20099;-68
2023/12/05 11:05:53;;;;;;;;;;;5.80;99.90;;;;;;5086964;28;20006;-68
2023/12/05 11:08:18;;;;;;;;;;;5.80;99.90;;;;;;5086847;28;19909;-68
2023/12/05 11:10:45;;;;;;;;;;;5.80;99.90;;;;;;5092396;28;19915;-68
2023/12/05 11:13:13;;;;;;;;;;;5.80;99.90;;;;;;5083972;28;20004;-68
2023/12/05 11:15:39;;;;;;;;;;;5.80;99.90;;;;;;5095176;28;19972;-68
2023/12/05 11:18:25;;;;;;;;;;;5.90;99.90;;;;;;5094977;28;19916;-68
2023/12/05 11:21:09;;;;;;;;;;;5.90;99.90;;;;;;5075076;28;19917;-68
2023/12/05 11:24:04;;;;;;;;;;;5.90;99.90;;;;;;5078887;28;19916;-68
2023/12/05 11:26:49;;;;;;;;;;;5.90;99.90;;;;;;5019365;28;20716;-68
2023/12/05 11:29:29;;;;;;;;;;;5.90;99.90;;;;;;5099217;28;19911;-68
2023/12/05 11:32:03;;;;;;;;;;;5.90;99.90;;;;;;5081776;28;19917;-68
2023/12/05 11:34:41;;;;;;;;;;;5.90;99.90;;;;;;5084135;28;19931;-68
2023/12/05 11:37:16;;;;;;;;;;;6.00;99.90;;;;;;5086507;28;20014;-68
2023/12/05 11:39:42;;;;;;;;;;;6.00;99.90;;;;;;5079535;28;19912;-68
2023/12/05 11:42:09;;;;;;;;;;;6.00;99.90;;;;;;5094275;28;19923;-68
2023/12/05 11:44:38;;;;;;;;;;;6.00;99.90;;;;;;5092879;28;19920;-68
2023/12/05 11:47:30;;;;;;;;;;;6.00;99.90;;;;;;5094196;28;20432;-68
2023/12/05 11:49:56;;;;;;;;;;;6.00;99.90;;;;;;5077203;28;20010;-68
2023/12/05 11:52:25;;;;;;;;;;;6.00;99.90;;;;;;5094203;28;20327;-68
2023/12/05 11:54:52;;;;;;;;;;;6.00;99.90;;;;;;5093000;28;20273;-68
2023/12/05 11:57:19;;;;;;;;;;;6.00;99.90;;;;;;5084488;28;19969;-68
2023/12/05 11:59:46;;;;;;;;;;;6.00;99.90;;;;;;5092831;28;20628;-68
2023/12/05 12:02:13;;;;;;;;;;;6.10;99.90;;;;;;5094997;28;19932;-68
2023/12/05 12:04:38;;;;;;;;;;;6.10;99.90;;;;;;5068628;28;19923;-68
2023/12/05 12:07:04;;;;;;;;;;;6.10;99.90;;;;;;5094990;28;19912;-68
2023/12/05 12:09:35;;;;;;;;;;;6.10;99.90;;;;;;5089188;28;19912;-68
2023/12/05 12:12:01;;;;;;;;;;;6.10;99.90;;;;;;5106944;28;19919;-68
2023/12/05 12:14:27;;;;;;;;;;;6.10;99.90;;;;;;5098192;28;19918;-68
2023/12/05 12:16:53;;;;;;;;;;;6.10;99.90;;;;;;5094568;28;19916;-68
2023/12/05 12:19:19;;;;;;;;;;;6.20;99.90;;;;;;5096387;28;20233;-68
2023/12/05 12:21:44;;;;;;;;;;;6.10;99.90;;;;;;5091519;28;19911;-68
2023/12/05 12:24:23;;;;;;;;;;;6.20;99.90;;;;;;5098074;28;19912;-68
2023/12/05 12:26:55;;;;;;;;;;;6.20;99.90;;;;;;5092327;28;19908;-68
2023/12/05 12:29:21;;;;;;;;;;;6.20;99.90;;;;;;5087402;28;19912;-68
2023/12/05 12:31:47;;;;;;;;;;;6.20;99.90;;;;;;5094411;28;20580;-68
2023/12/05 12:34:25;;;;;;;;;;;6.20;99.90;;;;;;5102587;28;19964;-68
2023/12/05 12:36:51;;;;;;;;;;;6.30;99.90;;;;;;5089962;28;19916;-68
2023/12/05 12:39:17;;;;;;;;;;;6.20;99.90;;;;;;5082333;28;19965;-68
2023/12/05 12:41:42;;;;;;;;;;;6.30;99.90;;;;;;5094683;28;19912;-68
2023/12/05 12:44:09;;;;;;;;;;;6.30;99.90;;;;;;5086289;28;19912;-68
2023/12/05 12:46:34;;;;;;;;;;;6.30;99.90;;;;;;5106352;28;19911;-68
2023/12/05 12:49:02;;;;;;;;;;;6.30;99.90;;;;;;5106396;28;19912;-68
2023/12/05 12:51:29;;;;;;;;;;;6.30;99.90;;;;;;5088922;28;19909;-68
2023/12/05 12:53:54;;;;;;;;;;;6.30;99.90;;;;;;5106211;28;19916;-68
2023/12/05 12:56:20;;;;;;;;;;;6.30;99.90;;;;;;5105803;28;19939;-68
2023/12/05 12:58:47;;;;;;;;;;;6.30;99.90;;;;;;5106257;28;20677;-68
2023/12/05 13:01:13;;;;;;;;;;;6.30;99.90;;;;;;5104152;28;20062;-68
2023/12/05 13:03:45;;;;;;;;;;;6.30;99.90;;;;;;5088068;28;19915;-68
2023/12/05 13:06:11;;;;;;;;;;;6.30;99.90;;;;;;5088761;28;19998;-68
2023/12/05 13:08:39;;;;;;;;;;;6.30;99.90;;;;;;5085918;28;19947;-68
2023/12/05 13:11:06;;;;;;;;;;;6.30;99.90;;;;;;5092793;28;20006;-68
2023/12/05 13:13:31;;;;;;;;;;;6.30;99.90;;;;;;5093173;28;20014;-68
2023/12/05 13:15:57;;;;;;;;;;;6.30;99.90;;;;;;5087961;28;20010;-68
2023/12/05 13:18:22;;;;;;;;;;;6.30;99.90;;;;;;5088971;28;20392;-68
2023/12/05 13:20:49;;;;;;;;;;;6.30;99.90;;;;;;5085128;28;20023;-68
2023/12/05 13:23:14;;;;;;;;;;;6.30;99.90;;;;;;5086305;28;19912;-68
2023/12/05 13:25:40;;;;;;;;;;;6.30;99.90;;;;;;5086341;28;20418;-68
2023/12/05 13:28:06;;;;;;;;;;;6.30;99.90;;;;;;5086564;28;19927;-68
2023/12/05 13:30:39;;;;;;;;;;;6.30;99.90;;;;;;5122454;27;19916;-68
2023/12/05 13:33:06;;;;;;;;;;;6.30;99.90;;;;;;5122400;27;19960;-69
2023/12/05 13:35:32;;;;;;;;;;;6.30;99.90;;;;;;5120616;27;19919;-68
2023/12/05 13:37:57;;;;;;;;;;;6.30;99.90;;;;;;5123683;27;19907;-68
2023/12/05 13:40:23;;;;;;;;;;;6.30;99.90;;;;;;5124923;27;19916;-69
2023/12/05 13:42:48;;;;;;;;;;;6.30;99.90;;;;;;5122156;27;20036;-69
2023/12/05 13:45:14;;;;;;;;;;;6.20;99.90;;;;;;5119044;27;20002;-68
2023/12/05 13:47:39;;;;;;;;;;;6.20;99.90;;;;;;5119364;27;19941;-68
2023/12/05 13:50:05;;;;;;;;;;;6.20;99.90;;;;;;5121104;27;19938;-69
2023/12/05 13:52:31;;;;;;;;;;;6.20;99.90;;;;;;5120720;27;20132;-69
2023/12/05 13:54:56;;;;;;;;;;;6.20;99.90;;;;;;5120840;27;19978;-69
2023/12/05 13:57:22;;;;;;;;;;;6.20;99.90;;;;;;5129648;27;19908;-69
2023/12/05 13:59:48;;;;;;;;;;;6.20;99.90;;;;;;5115952;27;19908;-68
2023/12/05 14:02:13;;;;;;;;;;;6.20;99.90;;;;;;5126513;27;20003;-69
2023/12/05 14:04:39;;;;;;;;;;;6.20;99.90;;;;;;5113552;27;19946;-69
2023/12/05 14:07:04;;;;;;;;;;;6.20;99.90;;;;;;5134746;27;20062;-69
2023/12/05 14:09:30;;;;;;;;;;;6.20;99.90;;;;;;5141635;27;20304;-69
2023/12/05 14:11:56;;;;;;;;;;;6.20;99.90;;;;;;5123997;27;20509;-68
2023/12/05 14:14:22;;;;;;;;;;;6.20;99.90;;;;;;5119986;27;19912;-68
2023/12/05 14:16:47;;;;;;;;;;;6.20;99.90;;;;;;5120636;27;20241;-69
2023/12/05 14:19:13;;;;;;;;;;;6.20;99.90;;;;;;5120983;27;21275;-68
2023/12/05 14:21:38;;;;;;;;;;;6.20;99.90;;;;;;5120155;27;20336;-68
2023/12/05 14:24:04;;;;;;;;;;;6.20;99.90;;;;;;5119168;27;20490;-69
2023/12/05 14:26:29;;;;;;;;;;;6.20;99.90;;;;;;5119388;27;21749;-68